Time;durP1;ratioP1;P1;durP2;ratioP2;P2;SDS_P1;SDS_P2;PMS_P1;PMS_P2;Temp;Humidity;BMP_temperature;BMP_pressure;BME280_temperature;BME280_humidity;BME280_pressure;Samples;Min_cycle;Max_cycle;Signal;HPM_P1;HPM_P2
2022/10/23 00:01:29;;;;;;;6.43;3.80;;;14.90;99.90;;;;;;5128989;27;20734;-68
2022/10/23 00:03:59;;;;;;;7.57;4.07;;;15.00;99.90;;;;;;5129158;27;20216;-68
2022/10/23 00:06:27;;;;;;;4.83;3.90;;;15.00;99.90;;;;;;5129140;27;20220;-68
2022/10/23 00:08:54;;;;;;;6.17;4.30;;;14.90;99.90;;;;;;5129000;27;20233;-68
2022/10/23 00:11:23;;;;;;;6.93;4.17;;;14.90;99.90;;;;;;5112963;27;20210;-68
2022/10/23 00:13:55;;;;;;;5.13;4.03;;;14.90;99.90;;;;;;5107951;28;20233;-68
2022/10/23 00:16:21;;;;;;;4.07;3.67;;;14.90;99.90;;;;;;5111857;27;20229;-68
2022/10/23 00:18:48;;;;;;;7.10;3.50;;;14.90;99.90;;;;;;5128781;27;20208;-68
2022/10/23 00:21:17;;;;;;;5.40;4.20;;;14.80;99.90;;;;;;5128760;27;20212;-68
2022/10/23 00:23:44;;;;;;;5.97;4.57;;;14.80;99.90;;;;;;5128741;27;20217;-68
2022/10/23 00:26:14;;;;;;;5.63;4.10;;;14.70;99.90;;;;;;5120590;27;20213;-68
2022/10/23 00:28:41;;;;;;;4.40;3.97;;;14.70;99.90;;;;;;5108200;28;20190;-68
2022/10/23 00:31:10;;;;;;;7.57;4.17;;;14.70;99.90;;;;;;5107994;28;20836;-68
2022/10/23 00:33:37;;;;;;;4.00;3.67;;;14.70;99.90;;;;;;5124797;27;20224;-68
2022/10/23 00:36:06;;;;;;;4.27;3.87;;;14.70;99.90;;;;;;5128612;27;20233;-68
2022/10/23 00:38:33;;;;;;;6.43;5.23;;;14.70;99.90;;;;;;5128265;27;20206;-68
2022/10/23 00:41:00;;;;;;;7.97;4.30;;;14.80;99.90;;;;;;5127959;27;20622;-68
2022/10/23 00:43:29;;;;;;;7.40;6.47;;;14.80;99.90;;;;;;5128499;27;20197;-68
2022/10/23 00:45:57;;;;;;;6.83;5.00;;;14.80;99.90;;;;;;5128770;27;20206;-68
2022/10/23 00:48:27;;;;;;;7.67;6.90;;;14.80;99.90;;;;;;5128297;27;20197;-68
2022/10/23 00:50:55;;;;;;;6.13;5.37;;;14.70;99.90;;;;;;5128393;27;20686;-68
2022/10/23 00:53:22;;;;;;;8.47;4.90;;;14.80;99.90;;;;;;5128548;27;20208;-68
2022/10/23 00:55:52;;;;;;;6.17;4.13;;;14.80;99.90;;;;;;5122342;27;20226;-68
2022/10/23 00:58:20;;;;;;;4.87;4.27;;;14.90;99.90;;;;;;5107575;28;20687;-68
2022/10/23 01:00:49;;;;;;;6.70;4.80;;;14.90;99.90;;;;;;5108029;28;20206;-68
2022/10/23 01:03:19;;;;;;;6.57;4.40;;;14.90;99.90;;;;;;5107506;28;20277;-68
2022/10/23 01:05:51;;;;;;;10.70;4.67;;;14.90;99.90;;;;;;5107910;28;20233;-68
2022/10/23 01:08:28;;;;;;;5.03;4.50;;;14.90;99.90;;;;;;5128482;27;20200;-68
2022/10/23 01:11:00;;;;;;;4.47;4.07;;;14.90;99.90;;;;;;5127777;27;20666;-68
2022/10/23 01:13:36;;;;;;;8.43;4.17;;;14.90;99.90;;;;;;5128252;27;20225;-68
2022/10/23 01:16:11;;;;;;;4.67;4.27;;;14.80;99.90;;;;;;5107795;28;20218;-68
2022/10/23 01:18:44;;;;;;;4.07;3.67;;;14.80;99.90;;;;;;5107736;28;20189;-68
2022/10/23 01:21:18;;;;;;;7.47;4.30;;;14.80;99.90;;;;;;5108115;28;20664;-69
2022/10/23 01:24:10;;;;;;;4.53;3.67;;;14.80;99.90;;;;;;5128370;27;20197;-68
2022/10/23 01:26:52;;;;;;;3.90;3.60;;;14.70;99.90;;;;;;5113429;27;20210;-68
2022/10/23 01:29:25;;;;;;;4.73;4.07;;;14.70;99.90;;;;;;5107764;28;20197;-68
2022/10/23 01:31:57;;;;;;;4.37;3.90;;;14.70;99.90;;;;;;5107466;28;20197;-68
2022/10/23 01:34:39;;;;;;;5.57;4.33;;;14.70;99.90;;;;;;5107595;28;20585;-68
2022/10/23 01:37:11;;;;;;;5.70;4.30;;;14.70;99.90;;;;;;5107883;28;20218;-68
2022/10/23 01:39:44;;;;;;;7.30;3.80;;;14.70;99.90;;;;;;5122434;28;20537;-68
2022/10/23 01:42:15;;;;;;;6.90;4.23;;;14.70;99.90;;;;;;5128153;27;20186;-68
2022/10/23 01:44:47;;;;;;;4.33;3.97;;;14.70;99.90;;;;;;5128109;27;20185;-68
2022/10/23 01:47:18;;;;;;;4.67;4.00;;;14.60;99.90;;;;;;5128456;27;20202;-68
2022/10/23 01:49:46;;;;;;;4.60;4.20;;;14.60;99.90;;;;;;5128079;27;20194;-68
2022/10/23 01:52:16;;;;;;;5.20;4.20;;;14.60;99.90;;;;;;5126373;27;20217;-68
2022/10/23 01:54:45;;;;;;;4.10;3.80;;;14.60;99.90;;;;;;5127809;27;20205;-68
2022/10/23 01:57:16;;;;;;;5.10;4.60;;;14.60;99.90;;;;;;5110890;27;20233;-68
2022/10/23 01:59:47;;;;;;;4.33;3.93;;;14.60;99.90;;;;;;5107367;28;20195;-68
2022/10/23 02:02:16;;;;;;;5.73;4.00;;;14.60;99.90;;;;;;5109218;28;20719;-68
2022/10/23 02:04:51;;;;;;;4.50;3.97;;;14.60;99.90;;;;;;5127818;27;20417;-68
2022/10/23 02:07:17;;;;;;;4.80;4.40;;;14.60;99.90;;;;;;5130597;27;20204;-68
2022/10/23 02:09:44;;;;;;;6.33;3.90;;;14.60;99.90;;;;;;5131004;27;20364;-68
2022/10/23 02:12:19;;;;;;;6.93;4.43;;;14.70;99.90;;;;;;5131082;27;20217;-68
2022/10/23 02:14:53;;;;;;;6.83;4.33;;;14.70;99.90;;;;;;5131326;27;20218;-68
2022/10/23 02:17:26;;;;;;;4.97;4.20;;;14.60;99.90;;;;;;5131221;27;21027;-68
2022/10/23 02:20:00;;;;;;;6.03;3.97;;;14.60;99.90;;;;;;5131276;27;20229;-68
2022/10/23 02:22:29;;;;;;;10.40;5.00;;;14.60;99.90;;;;;;5131258;27;20185;-68
2022/10/23 02:24:59;;;;;;;4.67;4.33;;;14.60;99.90;;;;;;5130664;27;20202;-68
2022/10/23 02:27:31;;;;;;;4.90;4.43;;;14.60;99.90;;;;;;5113238;27;20218;-68
2022/10/23 02:30:04;;;;;;;5.87;4.40;;;14.60;99.90;;;;;;5121703;27;20194;-68
2022/10/23 02:32:31;;;;;;;5.57;4.40;;;14.60;99.90;;;;;;5124059;27;20194;-68
2022/10/23 02:34:58;;;;;;;5.10;4.60;;;14.50;99.90;;;;;;5110653;28;20209;-68
2022/10/23 02:37:25;;;;;;;7.43;4.27;;;14.50;99.90;;;;;;5110398;28;20692;-68
2022/10/23 02:39:53;;;;;;;6.27;4.63;;;14.50;99.90;;;;;;5109862;28;20213;-68
2022/10/23 02:42:26;;;;;;;6.07;3.90;;;14.50;99.90;;;;;;5110138;28;20236;-68
2022/10/23 02:45:02;;;;;;;7.83;4.67;;;14.50;99.90;;;;;;5129675;27;20603;-68
2022/10/23 02:47:46;;;;;;;7.07;4.40;;;14.50;99.90;;;;;;5130038;27;20212;-68
2022/10/23 02:50:21;;;;;;;5.97;4.37;;;14.50;99.90;;;;;;5130846;27;20201;-68
2022/10/23 02:52:55;;;;;;;4.37;4.03;;;14.50;99.90;;;;;;5130573;27;20204;-68
2022/10/23 02:55:31;;;;;;;6.07;4.30;;;14.50;99.90;;;;;;5129238;27;20194;-68
2022/10/23 02:58:07;;;;;;;6.17;4.27;;;14.50;99.90;;;;;;5110054;28;20200;-68
2022/10/23 03:00:39;;;;;;;4.50;4.10;;;14.50;99.90;;;;;;5117254;27;20209;-68
2022/10/23 03:03:11;;;;;;;7.17;4.70;;;14.40;99.90;;;;;;5130057;27;20236;-68
2022/10/23 03:05:40;;;;;;;6.33;4.50;;;14.40;99.90;;;;;;5130230;27;20190;-69
2022/10/23 03:08:09;;;;;;;5.60;4.70;;;14.40;99.90;;;;;;5130520;27;20201;-68
2022/10/23 03:10:36;;;;;;;4.80;4.30;;;14.40;99.90;;;;;;5129834;27;20205;-68
2022/10/23 03:13:02;;;;;;;5.27;4.57;;;14.40;99.90;;;;;;5130286;27;20221;-68
2022/10/23 03:15:29;;;;;;;5.73;4.53;;;14.40;99.90;;;;;;5130253;27;20209;-68
2022/10/23 03:17:57;;;;;;;6.23;4.67;;;14.40;99.90;;;;;;5128571;27;20217;-68
2022/10/23 03:20:24;;;;;;;4.50;4.07;;;14.40;99.90;;;;;;5120912;27;20221;-68
2022/10/23 03:22:51;;;;;;;5.40;4.80;;;14.30;99.90;;;;;;5109776;28;20209;-68
2022/10/23 03:25:17;;;;;;;5.73;4.80;;;14.30;99.90;;;;;;5109423;28;20205;-68
2022/10/23 03:27:44;;;;;;;4.73;4.10;;;14.30;99.90;;;;;;5109575;28;20579;-68
2022/10/23 03:30:12;;;;;;;4.60;4.20;;;14.20;99.90;;;;;;5109376;28;20217;-68
2022/10/23 03:32:38;;;;;;;11.20;4.70;;;14.20;99.90;;;;;;5109192;28;20202;-68
2022/10/23 03:35:07;;;;;;;4.80;4.40;;;14.10;99.90;;;;;;5122764;27;20567;-68
2022/10/23 03:37:34;;;;;;;5.00;4.60;;;14.10;99.90;;;;;;5129847;27;20228;-68
2022/10/23 03:40:01;;;;;;;5.20;4.33;;;14.10;99.90;;;;;;5129156;27;20189;-68
2022/10/23 03:42:28;;;;;;;6.77;4.73;;;14.10;99.90;;;;;;5129420;27;20209;-68
2022/10/23 03:44:55;;;;;;;6.60;4.50;;;14.00;99.90;;;;;;5129231;27;20216;-68
2022/10/23 03:47:22;;;;;;;6.20;4.63;;;14.00;99.90;;;;;;5129790;27;20204;-68
2022/10/23 03:49:48;;;;;;;4.40;4.00;;;14.00;99.90;;;;;;5129506;27;20201;-68
2022/10/23 03:52:16;;;;;;;5.13;4.70;;;14.00;99.90;;;;;;5129365;27;20202;-68
2022/10/23 03:54:43;;;;;;;5.60;4.80;;;14.00;99.90;;;;;;5129044;27;20197;-68
2022/10/23 03:57:10;;;;;;;4.83;4.33;;;14.00;99.90;;;;;;5113009;27;20234;-68
2022/10/23 03:59:37;;;;;;;6.67;4.70;;;13.90;99.90;;;;;;5119078;27;20212;-68
2022/10/23 04:02:03;;;;;;;6.17;4.97;;;13.90;99.90;;;;;;5129160;27;20609;-68
2022/10/23 04:04:30;;;;;;;4.50;4.10;;;13.90;99.90;;;;;;5128958;27;20627;-68
2022/10/23 04:06:57;;;;;;;6.73;4.60;;;13.90;99.90;;;;;;5129254;27;20214;-68
2022/10/23 04:09:25;;;;;;;6.97;4.60;;;13.80;99.90;;;;;;5129008;27;20231;-68
2022/10/23 04:11:52;;;;;;;5.07;4.23;;;13.80;99.90;;;;;;5128302;27;20229;-68
2022/10/23 04:14:18;;;;;;;4.33;4.03;;;13.80;99.90;;;;;;5128964;27;20228;-68
2022/10/23 04:16:45;;;;;;;4.30;3.90;;;13.70;99.90;;;;;;5128398;27;20725;-68
2022/10/23 04:19:12;;;;;;;5.47;4.97;;;13.70;99.90;;;;;;5128853;27;20205;-68
2022/10/23 04:21:38;;;;;;;4.80;4.33;;;13.70;99.90;;;;;;5128843;27;20216;-68
2022/10/23 04:24:06;;;;;;;6.97;5.40;;;13.70;99.90;;;;;;5128520;27;20197;-68
2022/10/23 04:26:34;;;;;;;6.57;5.93;;;13.70;99.90;;;;;;5128729;27;20202;-68
2022/10/23 04:29:01;;;;;;;9.90;6.70;;;13.60;99.90;;;;;;5128509;27;20568;-68
2022/10/23 04:31:28;;;;;;;7.50;6.67;;;13.60;99.90;;;;;;5128297;27;20663;-68
2022/10/23 04:33:54;;;;;;;8.67;6.60;;;13.50;99.90;;;;;;5128747;27;20201;-68
2022/10/23 04:36:21;;;;;;;6.60;6.00;;;13.50;99.90;;;;;;5128577;27;20205;-68
2022/10/23 04:38:48;;;;;;;6.73;6.13;;;13.40;99.90;;;;;;5128848;27;20221;-68
2022/10/23 04:41:14;;;;;;;7.10;6.03;;;13.40;99.90;;;;;;5113624;27;20217;-68
2022/10/23 04:43:43;;;;;;;5.50;5.03;;;13.40;99.90;;;;;;5107758;28;20665;-68
2022/10/23 04:46:09;;;;;;;8.70;5.07;;;13.40;99.90;;;;;;5107734;28;20206;-68
2022/10/23 04:48:36;;;;;;;5.73;5.13;;;13.40;99.90;;;;;;5122336;27;20205;-68
2022/10/23 04:51:05;;;;;;;6.40;4.73;;;13.40;99.90;;;;;;5125956;27;20201;-68
2022/10/23 04:53:32;;;;;;;5.73;4.63;;;13.40;99.90;;;;;;5107975;28;20223;-68
2022/10/23 04:56:00;;;;;;;6.17;4.50;;;13.40;99.90;;;;;;5107879;28;20212;-68
2022/10/23 04:58:29;;;;;;;5.07;4.50;;;13.40;99.90;;;;;;5107761;28;20234;-68
2022/10/23 05:00:57;;;;;;;5.20;4.50;;;13.40;99.90;;;;;;5107909;28;20545;-68
2022/10/23 05:03:25;;;;;;;5.57;4.90;;;13.40;99.90;;;;;;5107671;28;20237;-68
2022/10/23 05:05:54;;;;;;;4.90;4.50;;;13.40;99.90;;;;;;5122336;28;20201;-68
2022/10/23 05:08:21;;;;;;;5.23;4.23;;;13.40;99.90;;;;;;5128618;27;20209;-68
2022/10/23 05:10:48;;;;;;;5.97;4.60;;;13.50;99.90;;;;;;5127674;27;20216;-68
2022/10/23 05:13:15;;;;;;;5.17;4.67;;;13.40;99.90;;;;;;5128002;27;20692;-68
2022/10/23 05:15:42;;;;;;;6.77;4.70;;;13.50;99.90;;;;;;5128101;27;20197;-68
2022/10/23 05:18:16;;;;;;;4.87;4.10;;;13.50;99.90;;;;;;5127727;27;20308;-68
2022/10/23 05:20:45;;;;;;;5.30;4.50;;;13.50;99.90;;;;;;5127911;27;20208;-67
2022/10/23 05:23:14;;;;;;;7.10;4.30;;;13.50;99.90;;;;;;5128108;27;20201;-68
2022/10/23 05:25:41;;;;;;;4.60;4.20;;;13.50;99.90;;;;;;5127698;27;20205;-68
2022/10/23 05:28:08;;;;;;;6.30;4.23;;;13.50;99.90;;;;;;5128022;27;20205;-68
2022/10/23 05:30:35;;;;;;;4.57;4.17;;;13.50;99.90;;;;;;5127962;27;20372;-68
2022/10/23 05:33:03;;;;;;;9.97;4.47;;;13.50;99.90;;;;;;5128249;27;20713;-68
2022/10/23 05:35:31;;;;;;;5.13;4.20;;;13.50;99.90;;;;;;5127390;27;20728;-68
2022/10/23 05:37:59;;;;;;;4.80;4.43;;;13.50;99.90;;;;;;5127446;27;20229;-68
2022/10/23 05:40:26;;;;;;;6.77;4.00;;;13.50;99.90;;;;;;5127841;27;20201;-68
2022/10/23 05:42:53;;;;;;;4.63;4.23;;;13.50;99.90;;;;;;5131864;27;20212;-68
2022/10/23 05:45:20;;;;;;;8.37;4.40;;;13.60;99.90;;;;;;5132015;27;20205;-68
2022/10/23 05:47:48;;;;;;;4.97;4.30;;;13.50;99.90;;;;;;5131660;27;20197;-68
2022/10/23 05:50:14;;;;;;;5.80;4.07;;;13.50;99.90;;;;;;5131720;27;20664;-68
2022/10/23 05:52:46;;;;;;;4.83;4.47;;;13.50;99.90;;;;;;5131864;27;20232;-68
2022/10/23 05:55:13;;;;;;;5.60;4.53;;;13.50;99.90;;;;;;5131590;27;20242;-68
2022/10/23 05:57:40;;;;;;;4.40;4.00;;;13.50;99.90;;;;;;5111066;28;20237;-68
2022/10/23 06:00:08;;;;;;;5.07;4.30;;;13.50;99.90;;;;;;5110995;28;20684;-68
2022/10/23 06:02:35;;;;;;;5.13;4.63;;;13.50;99.90;;;;;;5110842;27;20234;-68
2022/10/23 06:05:02;;;;;;;4.63;4.23;;;13.50;99.90;;;;;;5127440;27;20212;-68
2022/10/23 06:07:30;;;;;;;4.53;4.13;;;13.50;99.90;;;;;;5131663;27;20194;-68
2022/10/23 06:09:58;;;;;;;7.40;4.30;;;13.50;99.90;;;;;;5129835;27;20201;-68
2022/10/23 06:12:25;;;;;;;5.97;4.20;;;13.40;99.90;;;;;;5131552;27;20222;-68
2022/10/23 06:14:52;;;;;;;6.40;4.40;;;13.40;99.90;;;;;;5131401;27;20201;-68
2022/10/23 06:17:18;;;;;;;6.07;4.33;;;13.40;99.90;;;;;;5131229;27;20256;-68
2022/10/23 06:19:45;;;;;;;7.73;4.43;;;13.40;99.90;;;;;;5127044;27;20720;-68
2022/10/23 06:22:12;;;;;;;6.67;4.57;;;13.40;99.90;;;;;;5110755;28;20210;-68
2022/10/23 06:24:39;;;;;;;5.30;4.27;;;13.40;99.90;;;;;;5110376;28;20206;-68
2022/10/23 06:27:07;;;;;;;6.93;4.37;;;13.40;99.90;;;;;;5126455;27;20220;-68
2022/10/23 06:29:34;;;;;;;5.70;4.30;;;13.40;99.90;;;;;;5130496;27;20236;-68
2022/10/23 06:32:01;;;;;;;4.27;3.93;;;13.40;99.90;;;;;;5129293;27;20277;-68
2022/10/23 06:34:27;;;;;;;7.20;4.23;;;13.40;99.90;;;;;;5130621;27;20209;-68
2022/10/23 06:36:54;;;;;;;4.43;4.13;;;13.40;99.90;;;;;;5130976;27;20202;-68
2022/10/23 06:39:21;;;;;;;4.67;4.03;;;13.40;99.90;;;;;;5130210;27;20216;-68
2022/10/23 06:41:48;;;;;;;4.43;4.07;;;13.40;99.90;;;;;;5130113;27;20679;-68
2022/10/23 06:44:16;;;;;;;7.57;4.50;;;13.40;99.90;;;;;;5122113;27;20668;-68
2022/10/23 06:46:45;;;;;;;7.50;4.93;;;13.40;99.90;;;;;;5110251;28;20226;-68
2022/10/23 06:49:13;;;;;;;4.83;3.90;;;13.40;99.90;;;;;;5110303;28;20212;-68
2022/10/23 06:51:40;;;;;;;5.90;4.40;;;13.40;99.90;;;;;;5109907;28;20210;-68
2022/10/23 06:54:06;;;;;;;4.57;4.17;;;13.40;99.90;;;;;;5110374;27;20210;-68
2022/10/23 06:56:34;;;;;;;5.90;4.73;;;13.40;99.90;;;;;;5120334;27;20690;-68
2022/10/23 06:59:01;;;;;;;6.63;5.00;;;13.40;99.90;;;;;;5130445;27;20278;-68
2022/10/23 07:01:29;;;;;;;7.47;4.60;;;13.40;99.90;;;;;;5130304;27;20248;-68
2022/10/23 07:03:56;;;;;;;5.47;4.30;;;13.40;99.90;;;;;;5129016;27;20213;-68
2022/10/23 07:06:22;;;;;;;4.87;4.47;;;13.40;99.90;;;;;;5130130;27;20204;-68
2022/10/23 07:08:49;;;;;;;6.80;4.83;;;13.40;99.90;;;;;;5130293;27;20209;-68
2022/10/23 07:11:16;;;;;;;5.00;4.60;;;13.50;99.90;;;;;;5129900;27;20213;-68
2022/10/23 07:13:43;;;;;;;4.83;4.43;;;13.50;99.90;;;;;;5130042;27;20205;-68
2022/10/23 07:16:12;;;;;;;5.07;4.67;;;13.60;99.90;;;;;;5130158;27;20198;-68
2022/10/23 07:18:41;;;;;;;6.27;4.90;;;13.60;99.90;;;;;;5130104;27;20229;-68
2022/10/23 07:21:08;;;;;;;6.43;5.43;;;13.60;99.90;;;;;;5114590;27;20209;-68
2022/10/23 07:23:34;;;;;;;5.90;5.40;;;13.70;99.90;;;;;;5109432;28;20584;-68
2022/10/23 07:26:09;;;;;;;7.03;5.80;;;13.70;99.90;;;;;;5115969;27;20202;-68
2022/10/23 07:28:36;;;;;;;6.87;5.80;;;13.70;99.90;;;;;;5129459;27;20220;-68
2022/10/23 07:31:03;;;;;;;5.83;5.33;;;13.70;99.90;;;;;;5129744;27;20201;-68
2022/10/23 07:33:30;;;;;;;7.17;5.80;;;13.80;99.90;;;;;;5114785;27;20240;-68
2022/10/23 07:35:58;;;;;;;8.27;6.00;;;13.80;99.90;;;;;;5109241;28;20576;-69
2022/10/23 07:38:26;;;;;;;10.07;5.60;;;13.80;99.90;;;;;;5109301;28;20237;-68
2022/10/23 07:40:53;;;;;;;7.13;5.40;;;13.80;99.90;;;;;;5109039;27;20217;-68
2022/10/23 07:43:20;;;;;;;7.50;5.40;;;13.80;99.90;;;;;;5109282;28;20198;-68
2022/10/23 07:45:48;;;;;;;6.63;5.37;;;13.90;99.90;;;;;;5108975;28;20266;-68
2022/10/23 07:48:15;;;;;;;6.30;5.70;;;13.90;99.90;;;;;;5124547;27;20588;-68
2022/10/23 07:50:42;;;;;;;7.43;6.20;;;14.00;99.90;;;;;;5129466;27;20201;-68
2022/10/23 07:53:17;;;;;;;7.40;5.60;;;14.00;99.90;;;;;;5129566;27;20205;-68
2022/10/23 07:55:43;;;;;;;6.67;5.73;;;14.10;99.90;;;;;;5129089;27;20208;-68
2022/10/23 07:58:10;;;;;;;6.30;5.50;;;14.10;99.90;;;;;;5129521;27;20232;-68
2022/10/23 08:00:40;;;;;;;6.27;5.63;;;14.20;99.90;;;;;;5129180;27;20205;-68
2022/10/23 08:03:07;;;;;;;6.93;5.33;;;14.30;99.90;;;;;;5128964;27;20286;-68
2022/10/23 08:05:34;;;;;;;7.93;5.90;;;14.40;99.90;;;;;;5128206;27;20208;-68
2022/10/23 08:08:01;;;;;;;8.77;5.87;;;14.40;99.90;;;;;;5129432;27;20258;-68
2022/10/23 08:10:29;;;;;;;7.03;6.07;;;14.50;99.90;;;;;;5128825;27;20197;-68
2022/10/23 08:12:56;;;;;;;5.87;5.37;;;14.50;99.90;;;;;;5129101;27;20225;-68
2022/10/23 08:15:22;;;;;;;6.03;5.40;;;14.60;99.90;;;;;;5129270;27;20205;-68
2022/10/23 08:17:49;;;;;;;6.27;5.57;;;14.70;99.90;;;;;;5128982;27;20233;-68
2022/10/23 08:20:16;;;;;;;6.03;5.57;;;14.70;99.90;;;;;;5120510;27;20657;-68
2022/10/23 08:22:43;;;;;;;9.27;5.60;;;14.80;99.90;;;;;;5124362;27;20663;-68
2022/10/23 08:25:10;;;;;;;7.97;5.53;;;14.90;99.90;;;;;;5126669;27;20213;-68
2022/10/23 08:27:38;;;;;;;9.63;5.10;;;14.90;99.90;;;;;;5128713;27;20217;-68
2022/10/23 08:30:06;;;;;;;6.87;5.30;;;15.00;99.90;;;;;;5128997;27;20216;-68
2022/10/23 08:32:33;;;;;;;6.37;5.70;;;15.10;99.90;;;;;;5128062;27;20555;-68
2022/10/23 08:34:59;;;;;;;6.87;5.63;;;15.10;99.90;;;;;;5128755;27;20201;-68
2022/10/23 08:37:26;;;;;;;8.47;5.80;;;15.20;99.90;;;;;;5128643;27;20212;-68
2022/10/23 08:39:53;;;;;;;5.87;5.37;;;15.20;99.90;;;;;;5128741;27;20205;-68
2022/10/23 08:42:22;;;;;;;6.03;5.50;;;15.20;99.90;;;;;;5128654;27;20198;-68
2022/10/23 08:44:59;;;;;;;5.90;5.27;;;15.30;99.90;;;;;;5128684;27;20587;-68
2022/10/23 08:47:33;;;;;;;5.63;5.13;;;15.30;99.90;;;;;;5128495;27;20643;-68
2022/10/23 08:50:05;;;;;;;5.40;4.90;;;15.40;99.90;;;;;;5128605;27;20209;-68
2022/10/23 08:52:39;;;;;;;5.63;5.00;;;15.40;99.90;;;;;;5127995;27;20663;-68
2022/10/23 08:55:15;;;;;;;13.00;4.83;;;15.50;99.90;;;;;;5128064;27;20664;-68
2022/10/23 08:57:51;;;;;;;5.50;5.00;;;15.50;99.90;;;;;;5107804;28;20198;-68
2022/10/23 09:00:19;;;;;;;8.17;4.90;;;15.60;99.90;;;;;;5107875;28;20202;-68
2022/10/23 09:02:48;;;;;;;5.00;4.60;;;15.60;99.90;;;;;;5107488;28;20238;-68
2022/10/23 09:05:18;;;;;;;6.23;4.87;;;15.70;99.90;;;;;;5122482;28;20617;-68
2022/10/23 09:07:59;;;;;;;7.53;4.73;;;15.70;99.90;;;;;;5127695;27;20651;-68
2022/10/23 09:10:41;;;;;;;5.30;4.30;;;15.80;99.90;;;;;;5127813;27;20213;-68
2022/10/23 09:13:40;;;;;;;5.93;4.00;;;15.80;99.90;;;;;;5128076;27;20225;-68
2022/10/23 09:16:16;;;;;;;3.80;3.60;;;15.90;99.90;;;;;;5130466;27;20699;-68
2022/10/23 09:18:43;;;;;;;3.77;3.47;;;16.00;99.90;;;;;;5132020;27;20232;-68
2022/10/23 09:21:10;;;;;;;4.37;3.40;;;16.10;99.90;;;;;;5128417;27;20217;-68
2022/10/23 09:23:37;;;;;;;3.67;3.37;;;16.20;99.90;;;;;;5111809;28;20205;-68
2022/10/23 09:26:12;;;;;;;7.07;3.47;;;16.30;99.90;;;;;;5118383;27;20212;-68
2022/10/23 09:28:46;;;;;;;4.03;3.40;;;16.40;99.90;;;;;;5131952;27;20669;-68
2022/10/23 09:31:14;;;;;;;4.10;3.00;;;16.40;99.90;;;;;;5132096;27;20194;-68
2022/10/23 09:33:42;;;;;;;4.60;3.30;;;16.40;99.90;;;;;;5129620;27;20205;-68
2022/10/23 09:36:19;;;;;;;2.93;2.73;;;16.50;99.90;;;;;;5131608;27;20846;-68
2022/10/23 09:38:49;;;;;;;3.17;2.17;;;16.60;99.90;;;;;;5131621;27;20217;-68
2022/10/23 09:41:21;;;;;;;7.40;3.30;;;16.70;99.90;;;;;;5131525;27;20190;-68
2022/10/23 09:43:59;;;;;;;10.10;3.20;;;16.80;99.90;;;;;;5131746;27;20190;-68
2022/10/23 09:46:37;;;;;;;2.90;2.70;;;16.80;99.90;;;;;;5131888;27;20186;-68
2022/10/23 09:49:04;;;;;;;3.63;2.20;;;17.00;99.90;;;;;;5132016;27;20209;-68
2022/10/23 09:51:31;;;;;;;4.43;2.60;;;17.00;99.90;;;;;;5131737;27;20205;-68
2022/10/23 09:53:59;;;;;;;4.13;2.67;;;17.10;99.90;;;;;;5132006;27;20205;-68
2022/10/23 09:56:29;;;;;;;3.63;2.43;;;17.10;99.90;;;;;;5131364;27;20560;-68
2022/10/23 09:58:58;;;;;;;6.10;2.40;;;17.20;99.90;;;;;;5131635;27;20230;-69
2022/10/23 10:01:28;;;;;;;3.73;2.50;;;17.30;99.90;;;;;;5131650;27;20226;-68
2022/10/23 10:03:55;;;;;;;4.57;2.07;;;17.30;99.90;;;;;;5132086;27;20190;-68
2022/10/23 10:06:25;;;;;;;5.07;2.30;;;17.40;99.90;;;;;;5131668;27;20209;-68
2022/10/23 10:08:54;;;;;;;5.20;2.30;;;17.40;99.90;;;;;;5131392;27;20206;-68
2022/10/23 10:11:29;;;;;;;2.30;2.10;;;17.50;99.90;;;;;;5130881;27;20221;-68
2022/10/23 10:14:28;;;;;;;4.57;1.80;;;17.60;99.90;;;;;;5131736;27;20208;-68
2022/10/23 10:17:00;;;;;;;7.30;2.03;;;17.70;99.90;;;;;;5130456;27;20193;-68
2022/10/23 10:19:48;;;;;;;5.33;4.17;;;17.70;99.90;;;;;;5130366;27;20684;-68
2022/10/23 10:22:28;;;;;;;5.53;4.90;;;17.80;99.90;;;;;;5131213;27;20194;-68
2022/10/23 10:25:01;;;;;;;4.80;2.20;;;17.90;99.90;;;;;;5131010;27;20186;-68
2022/10/23 10:27:41;;;;;;;5.83;1.80;;;18.00;99.90;;;;;;5129409;27;20209;-68
2022/10/23 10:30:13;;;;;;;2.97;1.90;;;18.20;99.90;;;;;;5131024;27;20198;-68
2022/10/23 10:32:46;;;;;;;4.30;2.30;;;18.20;99.90;;;;;;5130713;27;20189;-68
2022/10/23 10:35:25;;;;;;;4.60;2.07;;;18.30;99.90;;;;;;5130935;27;20198;-68
2022/10/23 10:38:32;;;;;;;2.77;1.80;;;18.40;99.90;;;;;;5130701;27;20628;-68
2022/10/23 10:41:19;;;;;;;5.60;1.90;;;18.40;99.90;;;;;;5087054;28;20217;-68
2022/10/23 10:43:55;;;;;;;3.30;1.90;;;18.60;99.90;;;;;;5125436;27;20562;-68
2022/10/23 10:46:30;;;;;;;4.97;1.93;;;18.70;99.90;;;;;;5131014;27;20185;-68
2022/10/23 10:49:03;;;;;;;4.23;1.97;;;18.70;99.90;;;;;;5130942;27;20204;-68
2022/10/23 10:51:37;;;;;;;6.43;2.23;;;18.80;99.90;;;;;;5130749;27;20216;-68
2022/10/23 10:54:15;;;;;;;4.40;1.97;;;18.80;99.90;;;;;;5130639;27;20201;-68
2022/10/23 10:56:44;;;;;;;1.77;1.63;;;18.90;99.90;;;;;;5122247;27;20201;-68
2022/10/23 10:59:18;;;;;;;3.60;1.97;;;18.90;99.90;;;;;;5130563;27;20251;-68
2022/10/23 11:01:52;;;;;;;4.57;2.10;;;18.80;99.90;;;;;;5129540;27;20236;-68
2022/10/23 11:04:31;;;;;;;3.53;1.90;;;18.80;99.90;;;;;;5130611;27;20193;-68
2022/10/23 11:07:01;;;;;;;2.50;2.00;;;18.80;99.90;;;;;;5130339;27;20197;-68
2022/10/23 11:09:30;;;;;;;4.30;1.90;;;18.80;99.90;;;;;;5129955;27;20216;-69
2022/10/23 11:11:56;;;;;;;3.23;1.50;;;18.80;99.90;;;;;;5130116;27;20224;-68
2022/10/23 11:14:25;;;;;;;5.43;2.13;;;18.80;99.90;;;;;;5129636;27;20201;-68
2022/10/23 11:16:57;;;;;;;3.90;1.90;;;18.80;99.90;;;;;;5130160;27;20198;-68
2022/10/23 11:19:29;;;;;;;2.50;1.60;;;18.90;99.90;;;;;;5128943;27;20228;-68
2022/10/23 11:22:01;;;;;;;3.17;1.53;;;19.00;99.90;;;;;;5109607;28;20205;-68
2022/10/23 11:24:53;;;;;;;1.50;1.40;;;19.00;99.90;;;;;;5109265;28;20190;-68
2022/10/23 11:27:31;;;;;;;5.33;1.70;;;19.20;99.90;;;;;;5126965;27;20201;-68
2022/10/23 11:30:18;;;;;;;2.90;1.67;;;19.30;99.90;;;;;;5129323;27;20644;-68
2022/10/23 11:33:15;;;;;;;4.83;1.97;;;19.40;99.90;;;;;;5121176;27;20190;-68
2022/10/23 11:36:03;;;;;;;2.17;1.77;;;19.50;99.90;;;;;;5109213;28;20198;-68
2022/10/23 11:38:31;;;;;;;3.93;1.50;;;19.60;99.90;;;;;;5108253;28;20205;-68
2022/10/23 11:41:01;;;;;;;4.37;1.40;;;19.60;99.90;;;;;;5108763;28;20250;-68
2022/10/23 11:43:30;;;;;;;3.73;1.50;;;19.70;99.90;;;;;;5108901;28;20571;-68
2022/10/23 11:45:57;;;;;;;8.20;1.87;;;19.70;99.90;;;;;;5117683;27;20723;-68
2022/10/23 11:48:36;;;;;;;4.80;3.80;;;19.70;99.90;;;;;;5129447;27;20209;-68
2022/10/23 11:51:05;;;;;;;4.13;1.75;;;19.80;99.90;;;;;;5129699;27;20804;-68
2022/10/23 11:53:40;;;;;;;3.45;1.95;;;19.80;99.90;;;;;;5129497;27;20232;-68
2022/10/23 11:56:25;;;;;;;5.18;1.60;;;19.80;99.90;;;;;;5121866;27;20210;-68
2022/10/23 11:58:53;;;;;;;4.10;1.67;;;19.80;99.90;;;;;;5108877;28;20222;-68
2022/10/23 12:01:30;;;;;;;4.75;1.60;;;19.80;99.90;;;;;;5108629;28;20233;-68
2022/10/23 12:04:02;;;;;;;5.97;1.42;;;19.90;99.90;;;;;;5128395;27;20202;-68
2022/10/23 12:06:37;;;;;;;2.75;1.50;;;20.00;99.90;;;;;;5129575;27;20189;-69
2022/10/23 12:09:08;;;;;;;2.15;1.40;;;20.10;99.90;;;;;;5129376;27;20208;-69
2022/10/23 12:11:44;;;;;;;3.15;1.50;;;20.20;99.90;;;;;;5126640;27;20232;-68
2022/10/23 12:14:27;;;;;;;2.20;1.88;;;20.30;99.90;;;;;;5129117;27;20690;-69
2022/10/23 12:16:54;;;;;;;4.15;1.60;;;20.30;99.90;;;;;;5129276;27;20205;-68
2022/10/23 12:19:23;;;;;;;3.75;1.60;;;20.30;99.90;;;;;;5128892;27;20233;-68
2022/10/23 12:21:53;;;;;;;3.15;1.45;;;20.40;99.90;;;;;;5117033;27;20205;-68
2022/10/23 12:24:42;;;;;;;3.15;1.40;;;20.30;99.90;;;;;;5129124;27;20194;-68
2022/10/23 12:27:31;;;;;;;3.92;1.55;;;20.20;99.90;;;;;;5112701;27;20327;-68
2022/10/23 12:30:15;;;;;;;2.75;1.60;;;20.20;99.90;;;;;;5108385;28;20190;-68
2022/10/23 12:33:02;;;;;;;3.95;1.20;;;20.00;99.90;;;;;;5106722;28;20569;-68
2022/10/23 12:35:59;;;;;;;4.03;1.45;;;19.90;99.90;;;;;;5108345;28;20194;-68
2022/10/23 12:38:28;;;;;;;1.63;1.53;;;19.80;99.90;;;;;;5119755;27;20220;-68
2022/10/23 12:41:01;;;;;;;2.60;1.60;;;19.70;99.90;;;;;;5128622;27;20221;-68
2022/10/23 12:43:30;;;;;;;2.07;1.50;;;19.70;99.90;;;;;;5128559;27;20190;-68
2022/10/23 12:46:02;;;;;;;2.37;1.40;;;19.60;99.90;;;;;;5128230;27;20201;-68
2022/10/23 12:48:29;;;;;;;1.83;1.47;;;19.50;99.90;;;;;;5128506;27;20198;-68
2022/10/23 12:50:56;;;;;;;4.43;1.70;;;19.40;99.90;;;;;;5127710;27;20220;-68
2022/10/23 12:53:24;;;;;;;3.73;1.20;;;19.40;99.90;;;;;;5128020;27;20203;-68
2022/10/23 12:55:56;;;;;;;2.20;1.70;;;19.30;99.90;;;;;;5123045;27;20877;-68
2022/10/23 12:58:26;;;;;;;7.30;1.40;;;19.30;99.90;;;;;;5107832;28;20766;-68
2022/10/23 13:00:55;;;;;;;3.20;1.40;;;19.30;99.90;;;;;;5107716;28;20323;-68
2022/10/23 13:03:24;;;;;;;5.13;1.80;;;19.30;99.90;;;;;;5107466;28;20242;-68